Time;durP1;ratioP1;P1;durP2;ratioP2;P2;SDS_P1;SDS_P2;PMS_P1;PMS_P2;Temp;Humidity;BMP_temperature;BMP_pressure;BME280_temperature;BME280_humidity;BME280_pressure;Samples;Min_cycle;Max_cycle;Signal;HPM_P1;HPM_P2
2024/01/07 00:00:31;;;;;;;58.63;38.63;;;;;;;16.53;50.80;101945.16;4946502;29;20335;-35
2024/01/07 00:02:57;;;;;;;58.05;38.75;;;;;;;16.51;50.86;101949.78;4944298;28;20332;-36
2024/01/07 00:05:24;;;;;;;56.47;38.33;;;;;;;16.50;51.36;101947.22;4946924;29;20107;-35
2024/01/07 00:07:51;;;;;;;55.38;37.30;;;;;;;16.48;51.27;101957.19;4945170;29;20059;-36
2024/01/07 00:10:18;;;;;;;53.47;36.83;;;;;;;16.47;51.27;101964.34;4946158;28;20439;-35
2024/01/07 00:12:45;;;;;;;55.30;36.92;;;;;;;16.46;51.32;101957.31;4942703;29;20048;-35
2024/01/07 00:15:11;;;;;;;52.85;35.47;;;;;;;16.44;51.36;101964.63;4943807;28;20535;-39
2024/01/07 00:17:38;;;;;;;51.80;35.10;;;;;;;16.43;51.31;101968.22;4942346;28;20134;-35
2024/01/07 00:20:05;;;;;;;50.50;34.13;;;;;;;16.41;51.03;101969.34;4946659;28;20094;-36
2024/01/07 00:22:32;;;;;;;50.33;33.72;;;;;;;16.39;50.83;101971.25;4943601;29;20079;-35
2024/01/07 00:24:59;;;;;;;50.13;34.38;;;;;;;16.39;51.21;101973.94;4946463;29;20511;-35
2024/01/07 00:27:25;;;;;;;49.80;35.20;;;;;;;16.38;50.95;101977.59;4942921;28;20499;-36
2024/01/07 00:29:52;;;;;;;48.58;33.13;;;;;;;16.37;51.07;101986.59;4949155;29;20047;-36
2024/01/07 00:32:19;;;;;;;46.95;31.50;;;;;;;16.36;51.24;101984.88;4949169;28;20047;-36
2024/01/07 00:34:45;;;;;;;46.28;31.05;;;;;;;16.35;50.57;101984.00;4949733;29;20139;-36
2024/01/07 00:37:12;;;;;;;44.67;30.85;;;;;;;16.33;51.73;101988.63;4948062;29;20051;-37
2024/01/07 00:39:39;;;;;;;46.35;30.98;;;;;;;16.32;51.42;101988.72;4946339;29;20051;-40
2024/01/07 00:42:05;;;;;;;45.03;29.98;;;;;;;16.30;51.78;101983.50;4951464;28;20074;-36
2024/01/07 00:44:32;;;;;;;43.38;29.67;;;;;;;16.29;51.64;101992.50;4945867;28;20420;-37
2024/01/07 00:46:58;;;;;;;45.67;31.20;;;;;;;16.27;51.51;101989.94;4946966;29;20058;-40
2024/01/07 00:49:25;;;;;;;45.10;29.55;;;;;;;16.25;51.62;101989.22;4946880;29;20055;-37
2024/01/07 00:51:52;;;;;;;40.65;28.35;;;;;;;16.24;51.84;101987.50;4945954;28;20043;-38
2024/01/07 00:54:19;;;;;;;40.28;27.83;;;;;;;16.24;51.47;101986.63;4946968;29;20058;-38
2024/01/07 00:56:45;;;;;;;39.15;27.15;;;;;;;16.22;51.65;101993.94;4947484;29;20114;-34
2024/01/07 00:59:12;;;;;;;40.90;27.85;;;;;;;16.20;51.13;102002.06;4949199;28;20082;-38
2024/01/07 01:01:38;;;;;;;38.55;26.75;;;;;;;16.18;51.11;101993.28;4951315;28;20086;-37
2024/01/07 01:04:05;;;;;;;36.80;25.60;;;;;;;16.18;50.86;101995.97;4949343;29;20506;-38
2024/01/07 01:06:32;;;;;;;37.15;25.70;;;;;;;16.17;50.73;101996.09;4948044;29;20047;-37
2024/01/07 01:08:59;;;;;;;36.92;25.20;;;;;;;16.15;50.74;101993.53;4948028;29;20445;-36
2024/01/07 01:11:25;;;;;;;35.72;24.35;;;;;;;16.15;51.49;102009.56;4950363;28;20103;-35
2024/01/07 01:13:52;;;;;;;37.13;25.17;;;;;;;16.14;51.77;102004.34;4949769;29;20056;-35
2024/01/07 01:16:19;;;;;;;35.97;24.38;;;;;;;16.12;50.94;102015.16;4948410;28;20079;-36
2024/01/07 01:18:51;;;;;;;35.38;23.73;;;;;;;16.12;50.96;102004.47;4942965;28;20162;-35
2024/01/07 01:21:18;;;;;;;32.47;22.95;;;;;;;16.11;51.19;102013.44;4939675;28;20055;-36
2024/01/07 01:23:46;;;;;;;32.40;22.55;;;;;;;16.11;50.73;102007.22;4948206;29;20087;-35
2024/01/07 01:26:13;;;;;;;31.23;21.60;;;;;;;16.17;50.92;102010.31;4950044;28;20408;-36
2024/01/07 01:28:40;;;;;;;31.52;22.05;;;;;;;16.25;50.97;102015.97;4948404;28;20058;-38
2024/01/07 01:31:06;;;;;;;33.25;22.83;;;;;;;16.33;50.86;102014.53;4947747;29;20098;-36
2024/01/07 01:33:33;;;;;;;31.40;21.95;;;;;;;16.41;50.98;102017.50;4947089;29;20473;-37
2024/01/07 01:36:04;;;;;;;31.13;21.00;;;;;;;16.48;51.33;102027.63;4946021;29;20051;-38
2024/01/07 01:38:31;;;;;;;30.50;21.30;;;;;;;16.54;50.98;102016.47;4948518;29;20444;-39
2024/01/07 01:40:57;;;;;;;27.95;19.40;;;;;;;16.63;50.55;102017.59;4946821;29;20142;-35
2024/01/07 01:43:25;;;;;;;27.02;19.13;;;;;;;16.69;50.35;102027.84;4947037;29;20051;-38
2024/01/07 01:45:53;;;;;;;27.05;19.05;;;;;;;16.74;50.27;102035.56;4945649;29;20082;-38
2024/01/07 01:48:20;;;;;;;28.95;19.55;;;;;;;16.74;49.68;102027.53;4948343;28;20432;-35
2024/01/07 01:50:48;;;;;;;27.25;17.98;;;;;;;16.73;49.95;102036.53;4948411;28;20047;-36
2024/01/07 01:53:17;;;;;;;27.55;18.92;;;;;;;16.71;50.38;102036.59;4944153;28;20075;-35
2024/01/07 01:55:44;;;;;;;27.05;18.33;;;;;;;16.72;50.13;102046.34;4947661;28;20075;-37
2024/01/07 01:58:12;;;;;;;24.63;16.70;;;;;;;16.73;50.04;102042.72;4946306;28;20059;-38
2024/01/07 02:00:40;;;;;;;25.90;18.02;;;;;;;16.73;49.93;102047.25;4947621;29;20343;-35
2024/01/07 02:03:07;;;;;;;25.55;17.02;;;;;;;16.69;49.84;102048.41;4945795;28;20552;-36
2024/01/07 02:05:34;;;;;;;25.02;17.08;;;;;;;16.64;49.74;102043.38;4947951;29;20152;-35
2024/01/07 02:08:00;;;;;;;22.27;16.38;;;;;;;16.59;50.13;102048.22;4946904;29;20055;-36
2024/01/07 02:10:34;;;;;;;23.38;16.15;;;;;;;16.54;50.22;102050.41;4949040;29;20040;-34
2024/01/07 02:13:00;;;;;;;22.50;15.90;;;;;;;16.47;50.41;102051.81;4948612;29;20059;-38
2024/01/07 02:15:27;;;;;;;22.77;15.70;;;;;;;16.42;50.09;102054.84;4949656;29;20050;-37
2024/01/07 02:17:54;;;;;;;20.90;15.15;;;;;;;16.36;50.60;102059.78;4949384;29;20059;-35
2024/01/07 02:20:21;;;;;;;21.00;14.85;;;;;;;16.29;50.92;102070.94;4949414;28;20462;-35
2024/01/07 02:22:48;;;;;;;21.70;14.23;;;;;;;16.24;50.40;102080.25;4945823;28;20050;-36
2024/01/07 02:25:14;;;;;;;21.08;15.55;;;;;;;16.18;51.16;102070.88;4948158;29;20422;-36
2024/01/07 02:27:41;;;;;;;21.02;14.25;;;;;;;16.12;50.67;102074.00;4950400;29;20043;-36
2024/01/07 02:30:08;;;;;;;18.33;13.60;;;;;;;16.08;51.22;102077.88;4948320;29;20051;-35
2024/01/07 02:32:35;;;;;;;19.27;13.82;;;;;;;16.02;50.74;102072.94;4949865;29;20051;-35
2024/01/07 02:35:02;;;;;;;19.30;13.98;;;;;;;15.96;51.27;102071.56;4945820;28;20270;-34
2024/01/07 02:37:29;;;;;;;19.33;13.57;;;;;;;15.92;51.56;102077.22;4948994;29;20051;-37
2024/01/07 02:39:56;;;;;;;19.40;13.88;;;;;;;15.88;52.00;102079.28;4947314;28;20141;-36
2024/01/07 02:42:27;;;;;;;19.00;12.95;;;;;;;15.88;52.06;102075.75;4948207;28;20059;-35
2024/01/07 02:44:54;;;;;;;18.40;12.70;;;;;;;15.94;51.08;102078.00;4946151;28;20431;-36
2024/01/07 02:47:21;;;;;;;19.08;13.40;;;;;;;16.03;51.37;102083.53;4950594;28;20047;-36
2024/01/07 02:49:47;;;;;;;19.77;13.88;;;;;;;16.15;51.01;102080.94;4948496;29;20047;-36
2024/01/07 02:52:14;;;;;;;17.35;12.25;;;;;;;16.25;51.05;102084.66;4951048;28;20105;-36
2024/01/07 02:54:41;;;;;;;15.95;11.50;;;;;;;16.36;51.03;102086.53;4950142;29;20055;-35
2024/01/07 02:57:07;;;;;;;15.85;11.32;;;;;;;16.44;51.02;102085.03;4946687;29;20149;-35
2024/01/07 02:59:34;;;;;;;16.88;12.18;;;;;;;16.53;49.81;102081.66;4948876;29;20052;-36
2024/01/07 03:02:01;;;;;;;15.70;11.57;;;;;;;16.61;49.71;102097.16;4946337;29;20153;-36
2024/01/07 03:04:28;;;;;;;15.40;11.10;;;;;;;16.68;49.90;102089.50;4948293;28;20057;-35
2024/01/07 03:06:54;;;;;;;16.08;11.10;;;;;;;16.71;49.44;102089.28;4949991;29;20065;-35
2024/01/07 03:09:21;;;;;;;14.93;10.73;;;;;;;16.70;49.59;102091.13;4948915;29;20051;-36
2024/01/07 03:11:47;;;;;;;14.45;10.25;;;;;;;16.68;49.94;102090.38;4948876;29;20130;-37
2024/01/07 03:14:16;;;;;;;15.88;11.45;;;;;;;16.68;49.88;102097.53;4947689;28;20142;-35
2024/01/07 03:16:43;;;;;;;14.52;10.15;;;;;;;16.69;49.98;102096.59;4944193;29;20116;-36
2024/01/07 03:19:10;;;;;;;14.48;10.85;;;;;;;16.70;49.38;102106.31;4946770;28;20091;-35
2024/01/07 03:21:36;;;;;;;14.93;10.45;;;;;;;16.71;49.84;102111.56;4948347;29;20047;-39
2024/01/07 03:24:03;;;;;;;14.57;10.63;;;;;;;16.68;49.88;102109.13;4943933;29;20051;-35
2024/01/07 03:26:33;;;;;;;14.48;9.75;;;;;;;16.63;49.27;102105.91;4944205;29;20142;-35
2024/01/07 03:29:03;;;;;;;12.55;9.27;;;;;;;16.59;49.54;102107.13;4943215;29;20062;-36
2024/01/07 03:31:29;;;;;;;14.23;9.77;;;;;;;16.53;49.58;102116.47;4942083;29;20043;-35
2024/01/07 03:33:57;;;;;;;12.60;9.13;;;;;;;16.48;49.49;102113.28;4946006;29;20151;-35
2024/01/07 03:36:24;;;;;;;13.20;8.88;;;;;;;16.43;50.39;102114.56;4946712;28;20459;-34
2024/01/07 03:38:50;;;;;;;12.38;9.18;;;;;;;16.37;50.64;102110.53;4945117;29;20052;-35
2024/01/07 03:41:18;;;;;;;11.23;8.38;;;;;;;16.32;50.34;102111.81;4944517;29;20500;-37
2024/01/07 03:43:46;;;;;;;11.65;8.07;;;;;;;16.26;50.55;102119.31;4946888;29;20848;-36
2024/01/07 03:46:13;;;;;;;12.02;8.30;;;;;;;16.21;50.13;102121.47;4947828;28;20114;-35
2024/01/07 03:48:41;;;;;;;12.07;8.73;;;;;;;16.15;51.00;102121.91;4944491;28;20191;-35
2024/01/07 03:51:08;;;;;;;12.05;8.45;;;;;;;16.10;51.06;102129.41;4931696;29;20043;-35
2024/01/07 03:53:34;;;;;;;12.23;8.80;;;;;;;16.06;50.73;102135.94;4945437;29;20110;-35
2024/01/07 03:56:01;;;;;;;10.90;7.68;;;;;;;16.01;51.51;102138.09;4946247;28;20616;-36
2024/01/07 03:58:27;;;;;;;10.75;7.72;;;;;;;15.95;51.16;102128.66;4945260;28;20047;-35
2024/01/07 04:00:54;;;;;;;11.05;8.20;;;;;;;15.95;51.33;102147.38;4943408;28;20047;-38
2024/01/07 04:03:21;;;;;;;11.73;7.95;;;;;;;15.98;51.39;102140.97;4943870;28;20056;-35
2024/01/07 04:05:50;;;;;;;10.77;7.88;;;;;;;16.07;51.10;102155.50;4947615;28;20047;-37
2024/01/07 04:08:16;;;;;;;10.45;7.70;;;;;;;16.17;51.40;102154.75;4949005;29;20061;-37
2024/01/07 04:10:43;;;;;;;9.52;7.22;;;;;;;16.27;50.68;102155.78;4947805;29;20066;-36
2024/01/07 04:13:10;;;;;;;10.80;7.95;;;;;;;16.38;50.32;102170.25;4944202;29;20403;-36
2024/01/07 04:15:36;;;;;;;9.95;7.20;;;;;;;16.47;50.90;102169.56;4946496;29;20130;-36
2024/01/07 04:18:04;;;;;;;8.15;6.35;;;;;;;16.54;50.21;102165.47;4946460;29;20063;-35
2024/01/07 04:20:31;;;;;;;10.65;7.30;;;;;;;16.62;49.97;102170.28;4947179;28;20440;-37
2024/01/07 04:22:58;;;;;;;9.48;7.05;;;;;;;16.69;49.39;102179.59;4945508;29;20552;-37
2024/01/07 04:25:24;;;;;;;9.20;6.55;;;;;;;16.73;50.13;102173.91;4948909;28;20065;-36
2024/01/07 04:27:51;;;;;;;10.07;7.13;;;;;;;16.74;49.70;102178.31;4948296;29;20052;-36
2024/01/07 04:30:18;;;;;;;9.18;6.60;;;;;;;16.75;49.96;102180.00;4946462;29;20051;-36
2024/01/07 04:32:45;;;;;;;8.80;6.43;;;;;;;16.73;49.99;102175.75;4948217;28;20451;-37
2024/01/07 04:35:12;;;;;;;8.65;6.40;;;;;;;16.72;49.63;102180.22;4944709;28;20063;-36
2024/01/07 04:37:38;;;;;;;8.07;6.43;;;;;;;16.71;49.68;102172.28;4947505;29;20435;-35
2024/01/07 04:40:05;;;;;;;9.65;6.80;;;;;;;16.71;49.85;102189.19;4941401;29;20056;-35
2024/01/07 04:42:32;;;;;;;9.40;6.50;;;;;;;16.70;49.68;102184.81;4944589;28;20130;-36
2024/01/07 04:44:59;;;;;;;8.20;5.93;;;;;;;16.68;49.12;102194.78;4946286;29;20062;-39
2024/01/07 04:47:30;;;;;;;8.52;6.13;;;;;;;16.66;50.00;102187.84;4946186;29;20102;-36
2024/01/07 04:49:57;;;;;;;8.38;6.00;;;;;;;16.66;49.66;102195.88;4947206;29;20068;-36
2024/01/07 04:52:24;;;;;;;6.85;5.45;;;;;;;16.62;49.29;102197.06;4945820;29;20104;-37
2024/01/07 04:54:52;;;;;;;7.28;5.43;;;;;;;16.64;49.82;102200.47;4947635;29;20080;-38
2024/01/07 04:57:19;;;;;;;8.55;5.90;;;;;;;16.63;49.23;102207.63;4947243;28;20178;-35
2024/01/07 04:59:48;;;;;;;7.13;5.47;;;;;;;16.63;50.04;102207.63;4949211;28;20611;-35
2024/01/07 05:02:15;;;;;;;8.02;5.75;;;;;;;16.65;49.43;102218.25;4948724;28;20151;-36
2024/01/07 05:04:42;;;;;;;6.47;5.03;;;;;;;16.64;49.33;102219.19;4946762;28;20114;-36
2024/01/07 05:07:09;;;;;;;7.25;5.60;;;;;;;16.58;50.14;102212.47;4950023;28;20117;-38
2024/01/07 05:09:35;;;;;;;7.05;5.13;;;;;;;16.52;49.55;102218.25;4948359;28;20447;-35
2024/01/07 05:12:02;;;;;;;8.65;5.93;;;;;;;16.53;49.50;102223.53;4946214;29;20420;-35
2024/01/07 05:14:29;;;;;;;8.27;5.20;;;;;;;16.54;49.54;102217.19;4948818;28;20224;-35
2024/01/07 05:16:55;;;;;;;7.32;5.20;;;;;;;16.59;49.69;102226.72;4949987;29;20047;-35
2024/01/07 05:19:22;;;;;;;7.18;5.30;;;;;;;16.63;50.14;102229.06;4948421;28;20451;-35
2024/01/07 05:21:49;;;;;;;6.45;5.05;;;;;;;16.69;49.67;102239.34;4951026;29;20448;-37
2024/01/07 05:24:16;;;;;;;6.80;4.93;;;;;;;16.75;49.16;102238.06;4949815;29;20059;-37
2024/01/07 05:26:44;;;;;;;6.55;5.03;;;;;;;16.79;49.02;102239.53;4948831;29;20051;-38
2024/01/07 05:29:11;;;;;;;6.20;4.47;;;;;;;16.81;49.46;102242.97;4949316;29;20102;-36
2024/01/07 05:31:39;;;;;;;6.25;4.70;;;;;;;16.80;48.95;102245.75;4949263;28;20044;-36
2024/01/07 05:34:06;;;;;;;6.78;4.72;;;;;;;16.74;49.64;102247.91;4947254;29;20146;-37
2024/01/07 05:36:33;;;;;;;6.15;4.40;;;;;;;16.73;49.44;102246.22;4950129;29;20081;-38
2024/01/07 05:39:00;;;;;;;6.68;4.97;;;;;;;16.71;48.90;102253.44;4943673;28;20048;-37
2024/01/07 05:41:27;;;;;;;5.93;4.60;;;;;;;16.70;49.69;102251.75;4947918;28;20440;-37
2024/01/07 05:43:53;;;;;;;8.02;5.28;;;;;;;16.71;49.40;102252.59;4948812;29;20102;-38
2024/01/07 05:46:20;;;;;;;6.57;4.07;;;;;;;16.69;49.67;102262.56;4950966;28;20048;-35
2024/01/07 05:48:48;;;;;;;5.85;4.70;;;;;;;16.66;49.02;102265.47;4947080;28;20079;-36
2024/01/07 05:51:16;;;;;;;5.50;4.35;;;;;;;16.63;49.00;102265.69;4946080;29;20047;-36
2024/01/07 05:53:43;;;;;;;5.75;4.50;;;;;;;16.58;49.63;102267.84;4946209;28;20057;-37
2024/01/07 05:56:10;;;;;;;6.63;4.72;;;;;;;16.52;49.64;102259.28;4946432;29;20658;-37
2024/01/07 05:58:37;;;;;;;5.88;4.40;;;;;;;16.47;49.49;102268.59;4948847;29;20056;-36
2024/01/07 06:01:03;;;;;;;5.65;4.03;;;;;;;16.41;49.10;102271.72;4947998;29;20142;-35
2024/01/07 06:03:30;;;;;;;5.30;4.40;;;;;;;16.37;49.81;102275.56;4944580;29;20562;-38
2024/01/07 06:05:58;;;;;;;5.65;4.22;;;;;;;16.29;49.61;102287.66;4946052;29;20148;-37
2024/01/07 06:08:28;;;;;;;5.30;3.70;;;;;;;16.22;49.41;102289.03;4945667;28;20057;-36
2024/01/07 06:10:55;;;;;;;5.85;4.10;;;;;;;16.20;50.40;102284.75;4948606;28;20387;-36
2024/01/07 06:13:21;;;;;;;7.97;4.53;;;;;;;16.20;49.55;102290.97;4947580;28;20126;-36
2024/01/07 06:15:48;;;;;;;5.75;4.20;;;;;;;16.20;50.14;102290.09;4948013;29;20136;-35
2024/01/07 06:18:14;;;;;;;5.30;3.90;;;;;;;16.22;50.27;102294.38;4947394;29;20087;-35
2024/01/07 06:20:41;;;;;;;5.93;4.03;;;;;;;16.32;49.45;102304.44;4948033;29;20469;-36
2024/01/07 06:23:08;;;;;;;6.82;4.13;;;;;;;16.42;49.75;102310.88;4946008;29;20052;-35
2024/01/07 06:25:34;;;;;;;4.47;3.42;;;;;;;16.51;49.36;102308.41;4948874;28;20135;-36
2024/01/07 06:28:01;;;;;;;5.20;3.72;;;;;;;16.63;49.94;102320.06;4948675;28;20146;-36
2024/01/07 06:30:28;;;;;;;5.22;4.00;;;;;;;16.72;49.44;102318.56;4945966;29;20039;-37
2024/01/07 06:32:55;;;;;;;4.38;3.47;;;;;;;16.82;49.36;102318.81;4946994;28;20133;-37
2024/01/07 06:35:22;;;;;;;4.20;3.65;;;;;;;16.87;48.78;102320.19;4945335;28;20439;-37
2024/01/07 06:37:49;;;;;;;4.00;3.10;;;;;;;16.92;49.01;102326.06;4949012;29;20466;-40
2024/01/07 06:40:15;;;;;;;4.40;3.30;;;;;;;16.95;48.98;102322.31;4948656;28;20703;-40
2024/01/07 06:42:43;;;;;;;6.05;3.15;;;;;;;16.92;48.52;102341.28;4945963;28;20079;-36
2024/01/07 06:45:10;;;;;;;4.47;3.40;;;;;;;16.85;48.78;102343.53;4946077;29;20058;-36
2024/01/07 06:47:37;;;;;;;5.13;3.70;;;;;;;16.82;48.57;102351.78;4947136;29;20106;-38
2024/01/07 06:50:05;;;;;;;4.22;3.35;;;;;;;16.81;49.30;102351.91;4949084;29;20059;-39
2024/01/07 06:52:32;;;;;;;6.13;3.30;;;;;;;16.82;48.85;102353.63;4948813;28;20503;-37
2024/01/07 06:54:59;;;;;;;4.88;3.53;;;;;;;16.81;48.90;102358.13;4945514;29;20112;-35
2024/01/07 06:57:25;;;;;;;3.67;3.17;;;;;;;16.82;48.59;102356.28;4946656;29;20052;-36
2024/01/07 06:59:52;;;;;;;3.97;3.20;;;;;;;16.81;48.50;102359.94;4944904;29;20077;-36
2024/01/07 07:02:21;;;;;;;4.97;3.47;;;;;;;16.76;48.51;102363.81;4946571;29;20142;-35
2024/01/07 07:04:48;;;;;;;4.15;3.13;;;;;;;16.71;48.84;102370.41;4947743;28;20356;-35
2024/01/07 07:07:15;;;;;;;5.30;3.65;;;;;;;16.62;49.10;102371.91;4949201;28;20062;-35
2024/01/07 07:09:41;;;;;;;4.00;3.03;;;;;;;16.56;48.75;102374.13;4947774;28;20419;-36
2024/01/07 07:12:08;;;;;;;5.50;3.40;;;;;;;16.47;49.38;102383.66;4941502;28;20146;-35
2024/01/07 07:14:35;;;;;;;4.78;3.03;;;;;;;16.40;49.68;102387.72;4942493;29;20055;-35
2024/01/07 07:17:01;;;;;;;5.18;3.20;;;;;;;16.36;49.76;102387.09;4944688;29;20053;-35
2024/01/07 07:19:28;;;;;;;4.47;3.15;;;;;;;16.39;49.39;102392.22;4946853;29;20530;-36
2024/01/07 07:21:55;;;;;;;4.95;3.63;;;;;;;16.46;49.28;102392.66;4946130;28;20054;-36
2024/01/07 07:24:22;;;;;;;5.93;4.20;;;;;;;16.51;49.47;102403.91;4947001;29;20044;-36
2024/01/07 07:26:48;;;;;;;6.53;4.60;;;;;;;16.57;49.25;102405.31;4947531;29;20058;-36
2024/01/07 07:29:15;;;;;;;7.53;5.18;;;;;;;16.57;49.62;102411.53;4945456;29;20113;-35
2024/01/07 07:31:41;;;;;;;7.57;5.60;;;;;;;16.53;48.85;102412.69;4944445;28;20420;-38
2024/01/07 07:34:09;;;;;;;8.65;5.60;;;;;;;16.51;49.31;102411.94;4945683;28;20431;-34
2024/01/07 07:36:36;;;;;;;8.70;6.50;;;;;;;16.49;49.60;102414.72;4942736;28;20676;-34
2024/01/07 07:39:02;;;;;;;9.82;6.75;;;;;;;16.50;48.94;102426.28;4944662;29;20047;-36
2024/01/07 07:41:29;;;;;;;9.88;7.05;;;;;;;16.52;48.81;102435.06;4939502;28;20524;-35
2024/01/07 07:43:55;;;;;;;12.73;7.65;;;;;;;16.49;49.05;102430.78;4940987;29;20118;-35
2024/01/07 07:46:22;;;;;;;12.20;8.25;;;;;;;16.44;49.03;102442.75;4947145;28;20348;-37
2024/01/07 07:48:49;;;;;;;13.57;8.98;;;;;;;16.38;49.85;102444.03;4946154;29;20392;-34
2024/01/07 07:51:15;;;;;;;14.30;9.68;;;;;;;16.45;49.10;102445.34;4945141;28;20043;-36
2024/01/07 07:53:42;;;;;;;15.00;9.93;;;;;;;16.58;49.55;102441.81;4943256;28;20039;-36
2024/01/07 07:56:09;;;;;;;13.55;9.50;;;;;;;16.69;49.29;102450.84;4940617;29;20118;-37
2024/01/07 07:58:35;;;;;;;15.27;10.32;;;;;;;16.82;48.45;102460.72;4940705;29;20130;-35
2024/01/07 08:01:02;;;;;;;16.25;10.80;;;;;;;16.94;48.46;102465.22;4944525;28;20047;-36
2024/01/07 08:03:29;;;;;;;16.17;10.63;;;;;;;17.06;48.66;102464.38;4941241;28;20058;-36
2024/01/07 08:05:55;;;;;;;16.65;11.02;;;;;;;17.17;48.25;102464.47;4941355;28;20407;-36
2024/01/07 08:08:22;;;;;;;15.52;10.85;;;;;;;17.27;47.74;102464.66;4941425;28;20051;-36
2024/01/07 08:10:49;;;;;;;16.70;11.30;;;;;;;17.38;47.52;102472.81;4943570;28;20451;-35
2024/01/07 08:13:15;;;;;;;19.75;12.30;;;;;;;17.49;47.45;102480.94;4943468;28;20111;-35
2024/01/07 08:15:42;;;;;;;19.20;12.65;;;;;;;17.58;47.03;102478.56;4942947;28;20335;-36
2024/01/07 08:18:09;;;;;;;20.52;13.18;;;;;;;17.66;47.23;102477.03;4940948;29;20055;-36
2024/01/07 08:20:35;;;;;;;19.98;13.52;;;;;;;17.75;47.21;102488.94;4939452;28;20059;-36
2024/01/07 08:23:02;;;;;;;20.52;13.88;;;;;;;17.82;46.72;102487.53;4939900;29;20339;-35
2024/01/07 08:25:29;;;;;;;21.10;14.13;;;;;;;17.90;46.80;102487.00;4938181;29;20139;-35
2024/01/07 08:27:56;;;;;;;22.15;15.15;;;;;;;17.95;46.58;102493.72;4939587;28;20059;-35
2024/01/07 08:30:23;;;;;;;21.95;14.48;;;;;;;18.01;46.57;102495.09;4943196;29;20047;-35
2024/01/07 08:32:50;;;;;;;22.20;14.77;;;;;;;18.06;46.08;102498.31;4938644;29;20753;-35
2024/01/07 08:35:16;;;;;;;21.02;14.35;;;;;;;18.11;46.44;102496.13;4940130;28;20055;-36
2024/01/07 08:37:46;;;;;;;22.38;15.13;;;;;;;18.15;46.13;102502.97;4944574;29;20486;-35
2024/01/07 08:40:13;;;;;;;23.17;15.75;;;;;;;18.17;45.94;102498.38;4942418;29;20393;-34
2024/01/07 08:42:41;;;;;;;23.25;15.65;;;;;;;18.20;46.10;102503.47;4944484;28;20118;-34
2024/01/07 08:45:08;;;;;;;23.70;15.85;;;;;;;18.20;45.88;102513.38;4941538;29;20047;-35
2024/01/07 08:47:35;;;;;;;23.63;15.80;;;;;;;18.18;45.49;102516.19;4941042;28;20643;-34
2024/01/07 08:50:08;;;;;;;;;;;;;;;18.15;46.04;102527.13;4946363;28;20118;-34
2024/01/07 08:52:35;;;;;;;22.30;15.90;;;;;;;18.12;46.33;102530.03;4942787;29;20403;-35
2024/01/07 08:55:05;;;;;;;23.17;15.80;;;;;;;18.04;45.91;102528.88;4947862;29;20047;-35
2024/01/07 08:57:32;;;;;;;27.60;18.60;;;;;;;17.91;46.27;102529.78;4947398;28;20081;-35
2024/01/07 08:59:59;;;;;;;25.23;16.33;;;;;;;17.81;46.62;102530.56;4946213;29;20055;-34
2024/01/07 09:02:26;;;;;;;25.80;17.20;;;;;;;17.70;46.81;102534.84;4946577;28;20071;-36
2024/01/07 09:04:53;;;;;;;26.85;18.13;;;;;;;17.59;47.42;102545.47;4949647;28;20106;-37
2024/01/07 09:07:19;;;;;;;28.70;19.15;;;;;;;17.51;47.45;102551.38;4945166;29;20138;-35
2024/01/07 09:09:46;;;;;;;30.67;19.58;;;;;;;17.43;47.15;102560.94;4946315;28;20102;-38
2024/01/07 09:12:12;;;;;;;27.80;18.85;;;;;;;17.38;47.05;102561.25;4944986;29;20673;-37
2024/01/07 09:14:39;;;;;;;30.65;19.83;;;;;;;17.29;47.04;102556.56;4942540;29;20051;-38
2024/01/07 09:17:06;;;;;;;28.92;19.38;;;;;;;17.24;47.46;102572.94;4944454;29;20106;-35
2024/01/07 09:19:32;;;;;;;41.13;23.80;;;;;;;17.22;47.37;102579.38;4946466;28;20094;-37
2024/01/07 09:21:59;;;;;;;43.70;27.80;;;;;;;17.21;47.90;102575.00;4946271;29;20055;-38
2024/01/07 09:24:26;;;;;;;46.50;28.67;;;;;;;17.17;47.63;102578.84;4946129;28;20136;-35
2024/01/07 09:26:52;;;;;;;44.83;28.38;;;;;;;17.13;47.40;102580.88;4950150;28;20055;-38
2024/01/07 09:29:20;;;;;;;42.28;27.13;;;;;;;17.08;47.66;102585.66;4947005;29;20841;-38
2024/01/07 09:31:46;;;;;;;41.22;27.38;;;;;;;17.09;48.07;102584.72;4947624;29;20047;-39
2024/01/07 09:34:14;;;;;;;44.45;28.30;;;;;;;17.17;47.99;102587.72;4945826;29;20126;-37
2024/01/07 09:36:41;;;;;;;43.00;28.92;;;;;;;17.27;47.45;102588.78;4944395;29;20055;-36
2024/01/07 09:39:09;;;;;;;44.33;28.17;;;;;;;17.37;47.14;102596.22;4943828;29;20051;-39
2024/01/07 09:41:36;;;;;;;44.20;28.65;;;;;;;17.45;47.07;102602.75;4948516;28;20139;-34
2024/01/07 09:44:03;;;;;;;45.67;29.30;;;;;;;17.55;46.81;102591.38;4946211;28;20059;-34
2024/01/07 09:46:32;;;;;;;47.85;30.88;;;;;;;17.63;46.79;102600.59;4948201;29;20078;-34
2024/01/07 09:48:58;;;;;;;46.65;30.88;;;;;;;17.70;46.58;102601.91;4945244;28;20091;-36
2024/01/07 09:51:28;;;;;;;50.63;31.95;;;;;;;17.77;46.69;102602.34;4947571;28;20358;-34
2024/01/07 09:54:02;;;;;;;48.47;31.33;;;;;;;17.84;46.55;102605.44;4945454;28;20051;-35
2024/01/07 09:56:39;;;;;;;47.63;31.60;;;;;;;17.90;46.52;102615.75;4946119;28;20055;-35
2024/01/07 09:59:06;;;;;;;54.42;32.50;;;;;;;17.94;46.08;102626.16;4941628;29;20051;-35
2024/01/07 10:01:35;;;;;;;49.92;31.65;;;;;;;17.99;46.17;102620.44;4946574;28;20055;-34
2024/01/07 10:04:02;;;;;;;52.50;32.92;;;;;;;18.01;46.10;102634.63;4948724;28;20051;-34
2024/01/07 10:06:29;;;;;;;54.03;33.92;;;;;;;18.03;45.82;102627.31;4947506;28;20060;-34
2024/01/07 10:08:55;;;;;;;55.20;35.00;;;;;;;18.03;45.98;102638.03;4946324;28;20337;-34
2024/01/07 10:11:22;;;;;;;54.97;34.83;;;;;;;18.02;46.00;102640.84;4944712;29;21337;-34
2024/01/07 10:13:51;;;;;;;56.65;36.38;;;;;;;17.98;46.26;102642.88;4947358;28;20047;-35
2024/01/07 10:16:17;;;;;;;50.83;32.20;;;;;;;17.93;45.98;102650.38;4948903;29;20387;-35
2024/01/07 10:18:44;;;;;;;54.72;34.70;;;;;;;17.88;46.01;102657.91;4948093;28;20125;-34
2024/01/07 10:21:11;;;;;;;59.97;36.53;;;;;;;17.79;46.39;102648.69;4947494;29;20443;-34
2024/01/07 10:23:38;;;;;;;60.08;36.30;;;;;;;17.75;46.50;102649.88;4943756;29;20054;-34
2024/01/07 10:26:05;;;;;;;53.67;36.15;;;;;;;17.74;46.25;102662.44;4939727;29;20074;-37
2024/01/07 10:28:45;;;;;;;63.80;38.83;;;;;;;17.80;46.88;102657.59;4941552;29;20435;-37
2024/01/07 10:31:12;;;;;;;64.40;41.10;;;;;;;17.88;47.04;102663.28;4942121;29;20051;-41
2024/01/07 10:33:40;;;;;;;64.35;39.35;;;;;;;17.96;46.48;102661.75;4936985;29;20768;-41
2024/01/07 10:36:07;;;;;;;65.40;40.03;;;;;;;18.06;46.35;102664.66;4939484;29;20507;-42
2024/01/07 10:38:35;;;;;;;67.13;42.47;;;;;;;18.16;46.17;102657.66;4939850;29;20588;-39
2024/01/07 10:41:04;;;;;;;70.57;42.80;;;;;;;18.28;46.21;102655.06;4943367;29;20494;-37
2024/01/07 10:43:35;;;;;;;64.65;40.85;;;;;;;18.39;46.37;102665.88;4939741;29;20407;-42
2024/01/07 10:46:03;;;;;;;66.70;41.72;;;;;;;18.49;46.01;102659.75;4939380;29;20055;-38
2024/01/07 10:48:34;;;;;;;65.75;41.88;;;;;;;18.60;46.14;102671.50;4942302;29;20051;-35
2024/01/07 10:51:02;;;;;;;66.70;40.55;;;;;;;18.70;46.18;102667.22;4940122;29;20055;-35
2024/01/07 10:53:37;;;;;;;65.28;41.40;;;;;;;18.80;46.30;102662.00;4941014;29;20051;-34
2024/01/07 10:56:04;;;;;;;64.90;41.80;;;;;;;18.88;45.97;102664.97;4944436;29;20082;-35
2024/01/07 10:58:34;;;;;;;69.13;42.75;;;;;;;18.97;46.04;102665.16;4941322;29;20392;-35
2024/01/07 11:01:03;;;;;;;70.13;44.35;;;;;;;19.08;45.83;102671.53;4943694;28;20073;-35
2024/01/07 11:03:40;;;;;;;69.90;43.63;;;;;;;19.18;46.65;102676.13;4942589;28;20047;-35
2024/01/07 11:06:20;;;;;;;66.20;42.88;;;;;;;19.28;46.33;102678.94;4939730;29;20221;-35
2024/01/07 11:08:55;;;;;;;64.15;40.22;;;;;;;19.37;46.00;102672.00;4940742;29;20275;-34
2024/01/07 11:11:27;;;;;;;65.68;41.13;;;;;;;19.47;46.41;102673.88;4940495;28;20047;-37
2024/01/07 11:13:54;;;;;;;64.18;41.25;;;;;;;19.54;45.98;102676.94;4939610;29;20715;-35